• Join FlightAware (Why Join?)
  • Login
  • US Flag 
06:42AM EDT


 

Airport Tracker/Info


-or-


 

Live Flight TrackerFlight Track Log ✈ AFR7369 ✈ 24-May-2013 ✈ LFRB / BES - LFPO / ORY

Flight Track Log - Related Links

Times and Time Zones

All times are in EDT time to prevent confusion due to time zone crossing. See the AFR7369 flight status page for this flight to view local times or setup timezone preferences in your user account.

Time Position Orientation Groundspeed Altitude Reporting Facility
EDT Latitude Longitude Course Direction KTS MPH feet Rate Location/Type
08:43AM 48.5412 -2.9653 84° East  Level Estimated
08:44AM 48.5462 -2.8796 85° East  Level Estimated
08:45AM 48.5510 -2.7940 85° East  Level Estimated
08:46AM 48.5558 -2.7083 85° East  Level Estimated
08:47AM 48.5605 -2.6226 85° East  Level Estimated
08:48AM 48.5652 -2.5369 85° East  Level Estimated
08:49AM 48.5698 -2.4511 85° East  Level Estimated
08:50AM 48.5743 -2.3654 85° East  Level Estimated
08:51AM 48.5788 -2.2796 85° East  Level Estimated
08:52AM 48.5832 -2.1939 86° East  Level Estimated
08:53AM 48.5876 -2.1081 86° East  Level Estimated
08:54AM 48.5919 -2.0223 86° East  Level Estimated
08:55AM 48.5961 -1.9365 86° East  Level Estimated
08:56AM 48.6002 -1.8506 86° East  Level Estimated
08:57AM 48.6043 -1.7648 86° East  Level Estimated
08:58AM 48.6083 -1.6789 86° East  Level Estimated
08:59AM 48.6123 -1.5931 86° East  Level Estimated
09:00AM 48.6162 -1.5072 86° East  Level Estimated
09:01AM 48.6212 -1.3959 86° East  Level Estimated
09:02AM 48.6260 -1.2846 86° East  Level Estimated
09:03AM 48.6308 -1.1733 86° East  Level Estimated
09:04AM 48.6354 -1.0620 86° East  Level Estimated
09:05AM 48.6399 -0.9507 86° East  Level Estimated
09:06AM 48.6443 -0.8394 87° East  Level Estimated
09:07AM 48.6487 -0.7280 87° East  Level Estimated
09:08AM 48.6529 -0.6166 87° East  Level Estimated
09:09AM 48.6570 -0.5052 87° East  Level Estimated
09:10AM 48.6609 -0.3938 87° East  Level Estimated
09:11AM 48.6648 -0.2823 87° East  Level Estimated
09:12AM 48.6686 -0.1708 87° East  Level Estimated
09:13AM 48.6723 -0.0594 87° East  Level Estimated
09:14AM 48.6758 0.0521 87° East  Level Estimated
09:15AM 48.6793 0.1636 87° East  Level Estimated
09:16AM 48.6826 0.2752 87° East  Level Estimated
09:17AM 48.6859 0.3867 87° East  Level Estimated
09:18AM 48.6890 0.4983 88° East  Level Estimated
09:19AM 48.6920 0.6098 88° East  Level Estimated
09:20AM 48.6949 0.7214 88° East  Level Estimated
09:21AM 48.6979 0.8388 88° East  Level Estimated
09:22AM 48.7007 0.9561 88° East  Level Estimated
09:23AM 48.7034 1.0735 88° East  Level Estimated
09:24AM 48.7060 1.1909 88° East  Level Estimated
09:25AM 48.7085 1.3084 88° East  Level Estimated
09:26AM 48.7108 1.4258 88° East  Level Estimated
09:27AM 48.7131 1.5432 88° East  Level Estimated
09:28AM 48.7152 1.6607 88° East  Level Estimated
09:29AM 48.7172 1.7781 88° East  Level Estimated
09:30AM 48.7190 1.8956 89° East  Level Estimated
09:31AM 48.7208 2.0131 89° East  Level Estimated
09:32AM 48.7224 2.1306 89° East  Level Estimated
09:33AM 48.7239 2.2481 89° East  Level Estimated
09:34AM 48.7253 2.3594 89° East  Level Estimated
09:35AM 48.7253 2.3594 127° Southeast  Level Estimated
09:36AM 48.7253 2.3594 127° Southeast  Level Estimated
09:37AM 48.7253 2.3594 127° Southeast  Level Estimated
09:38AM 48.7253 2.3594 127° Southeast  Level Estimated
09:39AM 48.7253 2.3594 127° Southeast  Level Estimated
09:40AM 48.7253 2.3594 127° Southeast  Level Estimated